createdAt,value
2022-08-08T00:01:08.461Z,97977.88
2022-08-08T00:03:47.274Z,97985.25
2022-08-08T00:06:28.386Z,97979.44
2022-08-08T00:09:07.959Z,97984.78
2022-08-08T00:12:03.033Z,97997.34
2022-08-08T00:14:57.116Z,97992.63
2022-08-08T00:17:35.290Z,97999.47
2022-08-08T00:20:21.889Z,97999.84
2022-08-08T00:22:56.087Z,98002.88
2022-08-08T00:25:44.778Z,98001.69
2022-08-08T00:28:34.051Z,97995.34
2022-08-08T00:32:29.343Z,98004.38
2022-08-08T00:34:20.170Z,98000.72
2022-08-08T00:36:54.892Z,97996.44
2022-08-08T00:41:06.896Z,97996.28
2022-08-08T00:42:43.664Z,97997.97
2022-08-08T00:45:38.261Z,97992.81
2022-08-08T00:48:59.300Z,97999.84
2022-08-08T00:52:00.256Z,97990.34
2022-08-08T00:54:53.155Z,98001.03
2022-08-08T00:57:58.048Z,97995.38
2022-08-08T01:00:27.871Z,97987.84
2022-08-08T01:04:01.734Z,97989.91
2022-08-08T01:07:07.299Z,97986.25
2022-08-08T01:10:05.945Z,97989.94
2022-08-08T01:12:59.054Z,97998.97
2022-08-08T01:15:57.266Z,97992.78
2022-08-08T01:19:02.740Z,97989.81
2022-08-08T01:22:13.412Z,97988.28
2022-08-08T01:25:02.362Z,97993.50
2022-08-08T01:28:07.707Z,97990.31
2022-08-08T01:32:03.038Z,97991.63
2022-08-08T01:34:37.229Z,97988.31
2022-08-08T01:37:57.774Z,97994.34
2022-08-08T01:40:26.185Z,97988.16
2022-08-08T01:43:02.733Z,97994.34
2022-08-08T01:45:41.848Z,97993.19
2022-08-08T01:48:23.297Z,97996.84
2022-08-08T01:51:31.872Z,97994.69
2022-08-08T01:55:19.405Z,97991.00
2022-08-08T01:57:05.638Z,97986.66
2022-08-08T02:00:02.775Z,97982.66
2022-08-08T02:02:40.068Z,97988.00
2022-08-08T02:05:23.371Z,97996.69
2022-08-08T02:08:02.485Z,97992.03
2022-08-08T02:10:44.904Z,97991.34
2022-08-08T02:13:52.569Z,97984.19
2022-08-08T02:16:21.337Z,97981.84
2022-08-08T02:18:58.965Z,97990.34
2022-08-08T02:21:48.934Z,97993.50
2022-08-08T02:24:22.866Z,97991.16
2022-08-08T02:26:55.407Z,97991.34
2022-08-08T02:29:41.709Z,97992.69
2022-08-08T02:32:33.423Z,97993.50
2022-08-08T02:35:28.259Z,97988.00
2022-08-08T02:38:13.639Z,97992.38
2022-08-08T02:40:45.303Z,97986.69
2022-08-08T02:44:37.849Z,97989.88
2022-08-08T02:46:50.641Z,97983.91
2022-08-08T02:49:48.271Z,97989.72
2022-08-08T02:52:39.655Z,97993.72
2022-08-08T02:55:21.660Z,97985.41
2022-08-08T02:58:26.707Z,97989.72
2022-08-08T03:01:08.766Z,97994.22
2022-08-08T03:05:02.470Z,97999.72
2022-08-08T03:07:57.982Z,97994.38
2022-08-08T03:10:53.592Z,97988.06
2022-08-08T03:15:57.189Z,97992.72
2022-08-08T03:16:54.788Z,97995.41
2022-08-08T03:19:51.561Z,97996.53
2022-08-08T03:22:37.728Z,97988.81
2022-08-08T03:25:14.644Z,97992.69
2022-08-08T03:27:56.616Z,97991.03
2022-08-08T03:30:25.414Z,97992.97
2022-08-08T03:33:55.907Z,97990.69
2022-08-08T03:35:58.598Z,97991.31
2022-08-08T03:38:57.106Z,97991.03
2022-08-08T03:41:32.166Z,97990.00
2022-08-08T03:44:06.587Z,97987.00
2022-08-08T03:46:44.546Z,97996.84
2022-08-08T03:49:58.887Z,97997.66
2022-08-08T03:52:07.952Z,98001.69
2022-08-08T03:55:02.629Z,98001.16
2022-08-08T03:58:32.863Z,98004.00
2022-08-08T04:00:22.133Z,98001.97
2022-08-08T04:02:58.626Z,98007.84
2022-08-08T04:05:28.828Z,98018.34
2022-08-08T04:07:57.829Z,98010.84
2022-08-08T04:10:26.042Z,98006.19
2022-08-08T04:13:17.320Z,98007.16
2022-08-08T04:16:03.621Z,98023.28
2022-08-08T04:18:39.324Z,98026.28
2022-08-08T04:21:12.394Z,98027.81
2022-08-08T04:24:11.982Z,98032.97
2022-08-08T04:26:40.115Z,98034.78
2022-08-08T04:29:17.515Z,98044.47
2022-08-08T04:31:59.185Z,98040.94
2022-08-08T04:34:32.036Z,98050.16
2022-08-08T04:37:01.034Z,98056.81
2022-08-08T04:40:04.092Z,98056.25
2022-08-08T04:42:19.691Z,98067.31
2022-08-08T04:44:48.695Z,98067.81
2022-08-08T04:47:17.037Z,98054.38
2022-08-08T04:50:01.084Z,98067.31
2022-08-08T04:52:35.022Z,98070.72
2022-08-08T04:55:04.512Z,98064.56
2022-08-08T04:57:34.471Z,98069.72
2022-08-08T05:00:06.066Z,98069.06
2022-08-08T05:02:34.379Z,98071.06
2022-08-08T05:05:03.085Z,98066.56
2022-08-08T05:07:42.041Z,98067.91
2022-08-08T05:10:12.489Z,98067.06
2022-08-08T05:12:59.771Z,98074.41
2022-08-08T05:15:31.633Z,98076.41
2022-08-08T05:18:18.215Z,98074.09
2022-08-08T05:20:50.138Z,98078.41
2022-08-08T05:23:19.267Z,98075.59
2022-08-08T05:25:48.725Z,98072.56
2022-08-08T05:28:48.431Z,98072.22
2022-08-08T05:31:19.388Z,98071.06
2022-08-08T05:33:54.277Z,98071.41
2022-08-08T05:36:28.002Z,98076.06
2022-08-08T05:38:58.901Z,98081.25
2022-08-08T05:41:27.822Z,98076.91
2022-08-08T05:44:03.272Z,98081.94
2022-08-08T05:46:33.964Z,98094.25
2022-08-08T05:49:01.981Z,98084.56
2022-08-08T05:51:47.943Z,98092.19
2022-08-08T05:54:27.654Z,98091.41
2022-08-08T05:57:08.091Z,98097.34
2022-08-08T05:59:58.594Z,98105.00
2022-08-08T06:02:48.014Z,98092.47
2022-08-08T06:05:33.710Z,98095.91
2022-08-08T06:08:09.908Z,98095.44
2022-08-08T06:10:49.885Z,98101.25
2022-08-08T06:13:22.863Z,98097.97
2022-08-08T06:15:53.934Z,98103.38
2022-08-08T06:18:25.445Z,98102.09
2022-08-08T06:20:57.139Z,98106.06
2022-08-08T06:23:29.148Z,98109.09
2022-08-08T06:26:39.110Z,98111.75
2022-08-08T06:29:26.833Z,98114.63
2022-08-08T06:32:10.406Z,98113.28
2022-08-08T06:34:40.875Z,98117.69
2022-08-08T06:37:25.035Z,98118.75
2022-08-08T06:39:56.705Z,98121.72
2022-08-08T06:42:25.333Z,98119.09
2022-08-08T06:44:55.913Z,98117.97
2022-08-08T06:47:33.499Z,98124.09
2022-08-08T06:50:04.289Z,98119.09
2022-08-08T06:52:32.890Z,98123.81
2022-08-08T06:55:01.775Z,98127.78
2022-08-08T06:57:44.237Z,98131.38
2022-08-08T07:00:17.677Z,98129.25
2022-08-08T07:02:59.499Z,98134.81
2022-08-08T07:05:40.435Z,98132.97
2022-08-08T07:08:12.508Z,98138.03
2022-08-08T07:10:52.541Z,98133.72
2022-08-08T07:13:25.157Z,98137.97
2022-08-08T07:16:05.401Z,98143.97
2022-08-08T07:18:43.588Z,98140.97
2022-08-08T07:21:20.418Z,98139.78
2022-08-08T07:24:01.983Z,98139.53
2022-08-08T07:26:35.648Z,98142.84
2022-08-08T07:29:08.245Z,98143.22
2022-08-08T07:31:39.835Z,98140.75
2022-08-08T07:34:08.868Z,98143.44
2022-08-08T07:36:48.003Z,98143.22
2022-08-08T07:39:19.158Z,98145.38
2022-08-08T07:42:04.394Z,98155.44
2022-08-08T07:44:37.324Z,98148.47
2022-08-08T07:47:08.748Z,98153.84
2022-08-08T07:49:40.020Z,98151.94
2022-08-08T07:52:13.278Z,98149.97
2022-08-08T07:54:52.714Z,98150.75
2022-08-08T07:57:25.676Z,98146.69
2022-08-08T08:00:00.448Z,98154.72
2022-08-08T08:02:38.531Z,98160.91
2022-08-08T08:05:15.346Z,98160.50
2022-08-08T08:07:45.945Z,98164.94
2022-08-08T08:10:15.175Z,98160.03
2022-08-08T08:12:48.946Z,98156.13
2022-08-08T08:15:21.744Z,98167.19
2022-08-08T08:17:55.954Z,98166.09
2022-08-08T08:20:30.207Z,98158.22
2022-08-08T08:22:59.642Z,98163.81
2022-08-08T08:25:42.503Z,98158.09
2022-08-08T08:28:21.474Z,98160.78
2022-08-08T08:30:51.998Z,98161.88
2022-08-08T08:33:20.954Z,98159.53
2022-08-08T08:36:18.522Z,98163.16
2022-08-08T08:38:39.333Z,98158.13
2022-08-08T08:41:20.023Z,98162.94
2022-08-08T08:43:50.939Z,98158.19
2022-08-08T08:46:25.925Z,98155.69
2022-08-08T08:48:54.699Z,98168.53
2022-08-08T08:51:22.677Z,98162.75
2022-08-08T08:53:55.968Z,98162.13
2022-08-08T08:56:28.413Z,98156.09
2022-08-08T08:58:58.131Z,98164.28
2022-08-08T09:01:28.898Z,98164.00
2022-08-08T09:04:01.423Z,98158.53
2022-08-08T09:06:34.650Z,98156.16
2022-08-08T09:09:07.389Z,98155.38
2022-08-08T09:12:01.388Z,98157.50
2022-08-08T09:14:30.186Z,98149.09
2022-08-08T09:16:57.772Z,98158.81
2022-08-08T09:22:02.429Z,98159.41
2022-08-08T09:22:25.928Z,98151.56
2022-08-08T09:24:58.402Z,98153.81
2022-08-08T09:27:41.894Z,98161.69
2022-08-08T09:30:17.346Z,98148.66
2022-08-08T09:33:11.842Z,98149.56
2022-08-08T09:35:37.489Z,98152.47
2022-08-08T09:38:17.543Z,98153.88
2022-08-08T09:40:55.698Z,98155.59
2022-08-08T09:44:04.976Z,98146.31
2022-08-08T09:46:25.422Z,98138.56
2022-08-08T09:49:04.280Z,98143.09
2022-08-08T09:52:06.429Z,98135.03
2022-08-08T09:54:38.764Z,98131.75
2022-08-08T09:57:16.411Z,98135.34
2022-08-08T09:59:53.230Z,98134.75
2022-08-08T10:02:36.685Z,98127.88
2022-08-08T10:05:07.146Z,98131.72
2022-08-08T10:08:01.650Z,98130.22
2022-08-08T10:10:31.737Z,98122.88
2022-08-08T10:13:14.037Z,98123.31
2022-08-08T10:15:42.378Z,98117.56
2022-08-08T10:18:38.694Z,98126.00
2022-08-08T10:21:25.091Z,98121.50
2022-08-08T10:23:56.013Z,98122.16
2022-08-08T10:26:40.513Z,98121.19
2022-08-08T10:29:24.949Z,98126.16
2022-08-08T10:32:15.917Z,98121.56
2022-08-08T10:34:58.521Z,98121.44
2022-08-08T10:37:28.408Z,98116.06
2022-08-08T10:39:58.695Z,98120.81
2022-08-08T10:42:34.124Z,98113.75
2022-08-08T10:45:08.799Z,98117.81
2022-08-08T10:47:43.148Z,98104.44
2022-08-08T10:50:15.774Z,98113.03
2022-08-08T10:52:44.431Z,98110.00
2022-08-08T10:55:15.590Z,98099.16
2022-08-08T10:58:05.723Z,98098.22
2022-08-08T11:00:48.581Z,98101.09
2022-08-08T11:03:36.508Z,98085.88
2022-08-08T11:06:12.257Z,98084.97
2022-08-08T11:08:50.099Z,98087.44
2022-08-08T11:11:32.393Z,98093.41
2022-08-08T11:14:12.413Z,98090.56
2022-08-08T11:16:47.251Z,98084.63
2022-08-08T11:19:15.663Z,98086.53
2022-08-08T11:21:55.728Z,98089.63
2022-08-08T11:24:26.550Z,98083.94
2022-08-08T11:26:57.509Z,98090.03
2022-08-08T11:29:41.329Z,98095.25
2022-08-08T11:32:19.110Z,98089.84
2022-08-08T11:38:07.381Z,98079.22
2022-08-08T11:40:26.591Z,98073.41
2022-08-08T11:42:55.904Z,98086.41
2022-08-08T11:45:23.888Z,98079.59
2022-08-08T11:48:05.072Z,98081.63
2022-08-08T11:50:37.657Z,98082.63
2022-08-08T11:53:06.128Z,98081.84
2022-08-08T11:55:36.695Z,98075.44
2022-08-08T11:58:08.931Z,98087.78
2022-08-08T12:00:47.166Z,98076.59
2022-08-08T12:03:22.515Z,98082.16
2022-08-08T12:05:51.849Z,98073.88
2022-08-08T12:08:31.963Z,98072.00
2022-08-08T12:11:02.265Z,98069.91
2022-08-08T12:13:38.379Z,98061.34
2022-08-08T12:16:28.265Z,98068.59
2022-08-08T12:19:05.917Z,98064.16
2022-08-08T12:22:00.296Z,98063.97
2022-08-08T12:24:27.944Z,98061.75
2022-08-08T12:26:57.039Z,98067.69
2022-08-08T12:29:40.692Z,98050.91
2022-08-08T12:32:16.843Z,98051.63
2022-08-08T12:34:52.919Z,98052.19
2022-08-08T12:37:41.334Z,98059.56
2022-08-08T12:40:23.935Z,98048.34
2022-08-08T12:42:53.435Z,98056.13
2022-08-08T12:45:58.701Z,98058.34
2022-08-08T12:48:37.467Z,98048.31
2022-08-08T12:51:11.094Z,98042.06
2022-08-08T12:53:45.881Z,98040.59
2022-08-08T12:56:19.850Z,98037.94
2022-08-08T12:58:54.549Z,98054.00
2022-08-08T13:01:35.039Z,98040.91
2022-08-08T13:04:18.312Z,98041.09
2022-08-08T13:07:00.956Z,98040.16
2022-08-08T13:10:02.052Z,98038.13
2022-08-08T13:12:29.101Z,98037.47
2022-08-08T13:15:09.351Z,98041.00
2022-08-08T13:18:08.973Z,98037.72
2022-08-08T13:20:27.481Z,98037.59
2022-08-08T13:25:50.385Z,98033.78
2022-08-08T13:28:32.041Z,98030.28
2022-08-08T13:31:01.835Z,98023.09
2022-08-08T13:33:42.092Z,98023.75
2022-08-08T13:36:11.767Z,98015.63
2022-08-08T13:38:41.321Z,98016.03
2022-08-08T13:41:16.457Z,98013.88
2022-08-08T13:43:46.601Z,98010.81
2022-08-08T13:46:26.807Z,98009.28
2022-08-08T13:49:11.965Z,98005.16
2022-08-08T13:51:53.932Z,98011.91
2022-08-08T13:54:29.598Z,98007.47
2022-08-08T13:57:08.670Z,98001.34
2022-08-08T13:59:40.624Z,97994.75
2022-08-08T14:02:30.270Z,97996.78
2022-08-08T14:05:09.572Z,98000.41
2022-08-08T14:07:53.122Z,97998.63
2022-08-08T14:10:33.588Z,97990.06
2022-08-08T14:13:20.729Z,97995.00
2022-08-08T14:16:03.031Z,97985.13
2022-08-08T14:18:34.839Z,97989.81
2022-08-08T14:21:12.567Z,97988.25
2022-08-08T14:24:07.015Z,97997.34
2022-08-08T14:26:33.179Z,97985.81
2022-08-08T14:29:01.604Z,97990.72
2022-08-08T14:32:05.818Z,97979.38
2022-08-08T14:34:23.317Z,97979.78
2022-08-08T14:36:57.803Z,97981.91
2022-08-08T14:39:25.439Z,97978.69
2022-08-08T14:42:16.751Z,97992.75
2022-08-08T14:44:54.760Z,97987.22
2022-08-08T14:47:23.294Z,97989.75
2022-08-08T14:50:06.489Z,97988.94
2022-08-08T14:52:43.795Z,97986.94
2022-08-08T14:55:16.420Z,97994.03
2022-08-08T14:58:00.864Z,97988.19
2022-08-08T15:00:35.241Z,97988.88
2022-08-08T15:03:15.484Z,97992.00
2022-08-08T15:05:54.297Z,97991.69
2022-08-08T15:08:34.314Z,97984.13
2022-08-08T15:11:04.454Z,97994.03
2022-08-08T15:13:40.042Z,97985.78
2022-08-08T15:16:12.095Z,97989.47
2022-08-08T15:18:49.963Z,97977.56
2022-08-08T15:21:19.378Z,97989.16
2022-08-08T15:23:50.875Z,97994.03
2022-08-08T15:26:19.227Z,97989.94
2022-08-08T15:28:53.018Z,97995.94
2022-08-08T15:31:25.938Z,97992.03
2022-08-08T15:34:08.753Z,97990.28
2022-08-08T15:36:56.606Z,97987.81
2022-08-08T15:39:24.285Z,97984.63
2022-08-08T15:41:53.446Z,97988.28
2022-08-08T15:44:23.037Z,97982.84
2022-08-08T15:46:51.267Z,97986.63
2022-08-08T15:49:20.834Z,97986.53
2022-08-08T15:51:49.950Z,97985.69
2022-08-08T15:54:37.680Z,97980.75
2022-08-08T15:57:07.488Z,97978.25
2022-08-08T16:00:05.258Z,97986.13
2022-08-08T16:02:30.686Z,97983.56
2022-08-08T16:04:59.409Z,97979.56
2022-08-08T16:07:39.592Z,97975.88
2022-08-08T16:13:10.889Z,97985.81
2022-08-08T16:13:34.804Z,97985.59
2022-08-08T16:16:12.810Z,97989.25
2022-08-08T16:18:56.175Z,97978.09
2022-08-08T16:21:27.754Z,97975.22
2022-08-08T16:23:56.343Z,97974.84
2022-08-08T16:26:34.516Z,97985.31
2022-08-08T16:29:15.790Z,97982.75
2022-08-08T16:31:51.448Z,97973.56
2022-08-08T16:34:24.824Z,97977.94
2022-08-08T16:36:52.848Z,97975.63
2022-08-08T16:39:49.042Z,97973.28
2022-08-08T16:42:18.004Z,97983.19
2022-08-08T16:44:47.367Z,97990.63
2022-08-08T16:47:40.746Z,97980.59
2022-08-08T16:50:13.913Z,97980.59
2022-08-08T16:55:04.272Z,97985.41
2022-08-08T16:55:53.006Z,97984.00
2022-08-08T16:58:20.441Z,97983.75
2022-08-08T17:00:51.510Z,97981.25
2022-08-08T17:03:25.163Z,97980.97
2022-08-08T17:06:35.453Z,97981.50
2022-08-08T17:08:59.175Z,97982.44
2022-08-08T17:11:28.194Z,97988.31
2022-08-08T17:14:17.789Z,97987.16
2022-08-08T17:16:57.755Z,97994.84
2022-08-08T17:19:28.975Z,97997.50
2022-08-08T17:21:57.369Z,98004.22
2022-08-08T17:24:27.660Z,98011.00
2022-08-08T17:26:57.878Z,98010.03
2022-08-08T17:29:26.527Z,98008.31
2022-08-08T17:31:54.468Z,98009.91
2022-08-08T17:34:48.382Z,98008.66
2022-08-08T17:37:14.467Z,98016.84
2022-08-08T17:40:03.516Z,98016.22
2022-08-08T17:42:29.747Z,98010.66
2022-08-08T17:44:58.717Z,98022.75
2022-08-08T17:47:40.140Z,98017.56
2022-08-08T17:50:10.916Z,98015.94
2022-08-08T17:52:43.089Z,98024.34
2022-08-08T17:56:05.974Z,98025.53
2022-08-08T17:58:01.883Z,98030.47
2022-08-08T18:00:30.801Z,98031.94
2022-08-08T18:03:08.417Z,98034.47
2022-08-08T18:05:44.119Z,98049.28
2022-08-08T18:08:25.239Z,98047.56
2022-08-08T18:11:07.748Z,98043.94
2022-08-08T18:13:41.610Z,98044.56
2022-08-08T18:16:10.103Z,98049.63
2022-08-08T18:18:42.992Z,98049.25
2022-08-08T18:21:34.651Z,98052.00
2022-08-08T18:24:19.754Z,98050.91
2022-08-08T18:26:53.840Z,98053.88
2022-08-08T18:29:29.508Z,98057.63
2022-08-08T18:31:58.370Z,98057.66
2022-08-08T18:34:27.628Z,98065.59
2022-08-08T18:36:57.059Z,98070.53
2022-08-08T18:39:28.049Z,98068.50
2022-08-08T18:42:03.325Z,98068.69
2022-08-08T18:44:32.895Z,98078.47
2022-08-08T18:47:02.605Z,98076.25
2022-08-08T18:49:32.674Z,98079.34
2022-08-08T18:52:18.397Z,98082.47
2022-08-08T18:55:00.450Z,98087.22
2022-08-08T18:57:40.866Z,98101.31
2022-08-08T19:00:16.525Z,98099.66
2022-08-08T19:02:55.910Z,98106.72
2022-08-08T19:05:31.834Z,98101.34
2022-08-08T19:08:09.230Z,98109.41
2022-08-08T19:10:37.464Z,98105.91
2022-08-08T19:13:10.796Z,98113.34
2022-08-08T19:15:51.905Z,98118.50
2022-08-08T19:18:32.522Z,98114.13
2022-08-08T19:21:29.075Z,98126.34
2022-08-08T19:24:00.139Z,98124.22
2022-08-08T19:26:30.232Z,98127.31
2022-08-08T19:28:59.278Z,98131.44
2022-08-08T19:31:31.405Z,98130.38
2022-08-08T19:34:15.245Z,98129.03
2022-08-08T19:36:52.068Z,98140.88
2022-08-08T19:39:22.964Z,98136.41
2022-08-08T19:41:51.078Z,98138.44
2022-08-08T19:44:42.447Z,98133.34
2022-08-08T19:47:07.122Z,98145.25
2022-08-08T19:49:37.850Z,98142.97
2022-08-08T19:52:07.000Z,98145.19
2022-08-08T19:54:36.401Z,98145.00
2022-08-08T19:57:07.583Z,98143.22
2022-08-08T19:59:35.702Z,98144.19
2022-08-08T20:02:05.063Z,98154.72
2022-08-08T20:04:33.288Z,98154.38
2022-08-08T20:07:05.613Z,98148.09
2022-08-08T20:09:56.581Z,98157.72
2022-08-08T20:12:33.044Z,98154.50
2022-08-08T20:15:16.875Z,98158.22
2022-08-08T20:17:45.956Z,98155.72
2022-08-08T20:20:15.959Z,98162.50
2022-08-08T20:22:52.630Z,98162.16
2022-08-08T20:25:29.861Z,98164.00
2022-08-08T20:28:06.886Z,98168.22
2022-08-08T20:30:55.977Z,98169.78
2022-08-08T20:35:58.446Z,98170.81
2022-08-08T20:38:32.930Z,98166.06
2022-08-08T20:41:17.682Z,98166.72
2022-08-08T20:43:49.713Z,98168.47
2022-08-08T20:46:20.838Z,98175.03
2022-08-08T20:48:48.972Z,98169.78
2022-08-08T20:51:18.256Z,98173.19
2022-08-08T20:53:59.785Z,98168.47
2022-08-08T20:56:35.723Z,98168.84
2022-08-08T20:59:05.983Z,98177.97
2022-08-08T21:01:34.446Z,98172.41
2022-08-08T21:04:23.390Z,98179.44
2022-08-08T21:06:53.448Z,98179.88
2022-08-08T21:09:21.863Z,98186.91
2022-08-08T21:12:02.736Z,98181.13
2022-08-08T21:14:34.710Z,98179.28
2022-08-08T21:17:06.107Z,98178.59
2022-08-08T21:19:45.838Z,98177.78
2022-08-08T21:22:15.955Z,98180.00
2022-08-08T21:24:52.697Z,98179.41
2022-08-08T21:27:38.622Z,98190.06
2022-08-08T21:30:10.918Z,98186.38
2022-08-08T21:32:51.789Z,98183.75
2022-08-08T21:36:13.776Z,98183.94
2022-08-08T21:38:16.672Z,98193.06
2022-08-08T21:40:55.196Z,98190.94
2022-08-08T21:43:33.185Z,98201.25
2022-08-08T21:48:04.939Z,98196.63
2022-08-08T21:48:51.724Z,98206.38
2022-08-08T21:54:16.842Z,98204.56
2022-08-08T21:54:27.093Z,98198.41
2022-08-08T21:56:59.170Z,98204.78
2022-08-08T22:00:03.197Z,98205.41
2022-08-08T22:02:19.655Z,98204.81
2022-08-08T22:04:50.839Z,98205.34
2022-08-08T22:07:19.219Z,98209.91
2022-08-08T22:09:46.828Z,98208.56
2022-08-08T22:12:17.322Z,98206.44
2022-08-08T22:14:47.335Z,98206.44
2022-08-08T22:17:19.138Z,98206.06
2022-08-08T22:20:11.223Z,98213.94
2022-08-08T22:22:38.162Z,98212.97
2022-08-08T22:25:12.314Z,98206.78
2022-08-08T22:28:04.231Z,98208.75
2022-08-08T22:30:41.331Z,98213.63
2022-08-08T22:34:05.046Z,98209.00
2022-08-08T22:36:05.663Z,98206.50
2022-08-08T22:38:48.350Z,98208.00
2022-08-08T22:41:21.813Z,98216.91
2022-08-08T22:44:02.064Z,98209.56
2022-08-08T22:46:33.206Z,98214.22
2022-08-08T22:49:00.997Z,98214.44
2022-08-08T22:51:29.243Z,98212.41
2022-08-08T22:54:33.311Z,98213.78
2022-08-08T22:56:50.451Z,98218.66
2022-08-08T22:59:18.814Z,98214.09
2022-08-08T23:02:02.442Z,98219.13
2022-08-08T23:04:32.423Z,98209.66
2022-08-08T23:07:03.046Z,98217.19
2022-08-08T23:09:39.066Z,98206.19
2022-08-08T23:12:28.676Z,98215.00
2022-08-08T23:14:59.796Z,98212.69
2022-08-08T23:17:54.538Z,98212.69
2022-08-08T23:20:27.366Z,98210.00
2022-08-08T23:22:56.709Z,98209.16
2022-08-08T23:25:24.469Z,98209.38
2022-08-08T23:27:54.674Z,98217.22
2022-08-08T23:30:22.791Z,98214.56
2022-08-08T23:32:53.019Z,98215.19
2022-08-08T23:35:20.634Z,98220.41
2022-08-08T23:38:02.073Z,98215.38
2022-08-08T23:40:31.266Z,98224.91
2022-08-08T23:43:04.493Z,98227.25
2022-08-08T23:49:02.732Z,98219.91
2022-08-08T23:49:07.326Z,98219.25
2022-08-08T23:51:12.789Z,98217.56
2022-08-08T23:54:39.117Z,98217.94
2022-08-08T23:56:46.641Z,98208.25
2022-08-08T23:59:17.559Z,98211.59
